createdAt,value
2019-04-21T00:00:09.180Z,0
2019-04-21T00:00:52.196Z,0
2019-04-21T00:01:26.398Z,0
2019-04-21T00:02:07.227Z,0
2019-04-21T00:02:49.150Z,0
2019-04-21T00:03:35.429Z,0
2019-04-21T00:04:19.581Z,0
2019-04-21T00:05:02.611Z,0
2019-04-21T00:05:50.926Z,0
2019-04-21T00:06:29.678Z,0
2019-04-21T00:07:08.239Z,0
2019-04-21T00:07:50.186Z,0
2019-04-21T00:08:34.955Z,0
2019-04-21T00:09:17.686Z,0
2019-04-21T00:09:52.158Z,0
2019-04-21T00:10:32.867Z,0
2019-04-21T00:11:15.027Z,0
2019-04-21T00:11:55.121Z,0
2019-04-21T00:12:28.149Z,0
2019-04-21T00:13:07.639Z,0
2019-04-21T00:13:46.559Z,0
2019-04-21T00:14:26.020Z,0
2019-04-21T00:15:06.013Z,0
2019-04-21T00:15:40.530Z,0
2019-04-21T00:16:21.282Z,0
2019-04-21T00:17:03.515Z,0
2019-04-21T00:17:36.925Z,0
2019-04-21T00:18:17.327Z,0
2019-04-21T00:19:04.973Z,0
2019-04-21T00:19:39.448Z,0
2019-04-21T00:20:26.550Z,0
2019-04-21T00:21:10.892Z,0
2019-04-21T00:21:45.649Z,0
2019-04-21T00:22:33.829Z,0
2019-04-21T00:23:16.541Z,0
2019-04-21T00:23:55.959Z,0
2019-04-21T00:24:33.505Z,0
2019-04-21T00:25:13.799Z,0
2019-04-21T00:25:51.102Z,0
2019-04-21T00:26:36.187Z,0
2019-04-21T00:27:19.903Z,0
2019-04-21T00:27:56.240Z,0
2019-04-21T00:28:48.845Z,0
2019-04-21T00:29:25.509Z,0
2019-04-21T00:30:03.156Z,0
2019-04-21T00:30:44.077Z,0
2019-04-21T00:31:24.238Z,0
2019-04-21T00:31:57.808Z,0
2019-04-21T00:32:35.086Z,0
2019-04-21T00:33:13.747Z,0
2019-04-21T00:33:48.127Z,0
2019-04-21T00:34:27.968Z,0
2019-04-21T00:35:11.614Z,0
2019-04-21T00:35:54.819Z,0
2019-04-21T00:36:40.389Z,0
2019-04-21T00:37:17.867Z,0
2019-04-21T00:38:07.742Z,0
2019-04-21T00:38:58.607Z,0
2019-04-21T00:39:35.658Z,0
2019-04-21T00:40:09.036Z,0
2019-04-21T00:40:53.673Z,0
2019-04-21T00:41:29.258Z,0
2019-04-21T00:42:09.656Z,0
2019-04-21T00:42:48.221Z,0
2019-04-21T00:43:27.825Z,0
2019-04-21T00:44:03.948Z,0
2019-04-21T00:44:41.918Z,0
2019-04-21T00:45:27.336Z,0
2019-04-21T00:46:02.887Z,0
2019-04-21T00:46:47.049Z,0
2019-04-21T00:47:33.923Z,0
2019-04-21T00:48:16.395Z,0
2019-04-21T00:48:56.285Z,0
2019-04-21T00:49:26.754Z,0
2019-04-21T00:50:17.553Z,0
2019-04-21T00:51:09.579Z,0
2019-04-21T00:51:45.463Z,0
2019-04-21T00:52:28.000Z,0
2019-04-21T00:52:59.184Z,0
2019-04-21T00:53:43.216Z,0
2019-04-21T00:54:24.390Z,0
2019-04-21T00:55:07.487Z,0
2019-04-21T00:55:44.226Z,0
2019-04-21T00:56:21.086Z,0
2019-04-21T00:57:02.469Z,0
2019-04-21T00:57:44.658Z,0
2019-04-21T00:59:05.509Z,0
2019-04-21T00:59:44.963Z,0
2019-04-21T01:00:21.888Z,0
2019-04-21T01:01:01.400Z,0
2019-04-21T01:01:43.372Z,0
2019-04-21T01:02:21.834Z,0
2019-04-21T01:03:45.537Z,0
2019-04-21T01:04:30.326Z,0
2019-04-21T01:05:10.705Z,0
2019-04-21T01:05:51.371Z,0
2019-04-21T01:06:28.502Z,0
2019-04-21T01:07:07.032Z,0
2019-04-21T01:07:45.320Z,0
2019-04-21T01:08:24.915Z,0
2019-04-21T01:09:02.503Z,0
2019-04-21T01:09:42.166Z,0
2019-04-21T01:10:20.479Z,0
2019-04-21T01:10:58.693Z,0
2019-04-21T01:11:49.083Z,0
2019-04-21T01:12:32.945Z,0
2019-04-21T01:13:15.781Z,0
2019-04-21T01:13:51.526Z,0
2019-04-21T01:14:34.217Z,0
2019-04-21T01:15:18.153Z,0
2019-04-21T01:15:52.652Z,0
2019-04-21T01:16:32.999Z,0
2019-04-21T01:17:17.741Z,0
2019-04-21T01:17:51.491Z,0
2019-04-21T01:18:32.264Z,0
2019-04-21T01:19:10.360Z,0
2019-04-21T01:19:50.478Z,0
2019-04-21T01:20:17.458Z,0
2019-04-21T01:20:54.105Z,0
2019-04-21T01:21:34.537Z,0
2019-04-21T01:22:14.907Z,0
2019-04-21T01:22:55.835Z,0
2019-04-21T01:23:35.855Z,0
2019-04-21T01:24:21.512Z,0
2019-04-21T01:25:04.202Z,0
2019-04-21T01:25:43.853Z,0
2019-04-21T01:26:29.526Z,0
2019-04-21T01:27:06.205Z,0
2019-04-21T01:27:58.624Z,0
2019-04-21T01:28:33.864Z,0
2019-04-21T01:29:15.340Z,0
2019-04-21T01:29:59.581Z,0
2019-04-21T01:30:39.732Z,0
2019-04-21T01:31:16.832Z,0
2019-04-21T01:32:04.878Z,0
2019-04-21T01:32:41.988Z,0
2019-04-21T01:33:25.825Z,0
2019-04-21T01:34:02.470Z,0
2019-04-21T01:34:44.961Z,0
2019-04-21T01:35:20.554Z,0
2019-04-21T01:35:57.813Z,0
2019-04-21T01:36:38.292Z,0
2019-04-21T01:37:18.281Z,0
2019-04-21T01:38:06.331Z,0
2019-04-21T01:38:47.973Z,0
2019-04-21T01:39:26.922Z,0
2019-04-21T01:40:08.324Z,0
2019-04-21T01:40:44.512Z,0
2019-04-21T01:41:31.173Z,0
2019-04-21T01:42:08.660Z,0
2019-04-21T01:42:45.040Z,0
2019-04-21T01:43:27.410Z,0
2019-04-21T01:44:04.725Z,0
2019-04-21T01:44:45.855Z,0
2019-04-21T01:45:26.129Z,0
2019-04-21T01:46:08.914Z,0
2019-04-21T01:46:45.292Z,0
2019-04-21T01:47:24.122Z,0
2019-04-21T01:48:05.642Z,0
2019-04-21T01:48:42.642Z,0
2019-04-21T01:49:22.711Z,0
2019-04-21T01:49:58.899Z,0
2019-04-21T01:50:50.895Z,0
2019-04-21T01:51:25.874Z,0
2019-04-21T01:52:23.525Z,0
2019-04-21T01:52:55.707Z,0
2019-04-21T01:53:36.262Z,0
2019-04-21T01:54:14.295Z,0
2019-04-21T01:54:54.762Z,0
2019-04-21T01:55:35.426Z,0
2019-04-21T01:56:16.687Z,0
2019-04-21T01:56:55.027Z,0
2019-04-21T01:57:33.952Z,0
2019-04-21T01:58:10.703Z,0
2019-04-21T01:58:48.062Z,0
2019-04-21T01:59:30.313Z,0
2019-04-21T02:00:10.315Z,0
2019-04-21T02:00:51.650Z,0
2019-04-21T02:01:38.414Z,0
2019-04-21T02:02:16.894Z,0
2019-04-21T02:03:06.127Z,0
2019-04-21T02:04:23.819Z,0
2019-04-21T02:05:02.956Z,0
2019-04-21T02:05:43.770Z,0
2019-04-21T02:06:20.538Z,0
2019-04-21T02:07:02.630Z,0
2019-04-21T02:08:21.349Z,0
2019-04-21T02:09:03.193Z,0
2019-04-21T02:09:41.779Z,0
2019-04-21T02:10:26.477Z,0
2019-04-21T02:11:50.066Z,0
2019-04-21T02:12:25.106Z,0
2019-04-21T02:13:03.057Z,0
2019-04-21T02:13:52.842Z,0
2019-04-21T02:14:30.915Z,0
2019-04-21T02:15:10.946Z,0
2019-04-21T02:15:48.607Z,0
2019-04-21T02:16:27.967Z,0
2019-04-21T02:17:05.086Z,0
2019-04-21T02:17:46.797Z,0
2019-04-21T02:18:27.110Z,0
2019-04-21T02:19:04.219Z,0
2019-04-21T02:19:45.720Z,0
2019-04-21T02:20:21.383Z,0
2019-04-21T02:20:59.976Z,0
2019-04-21T02:21:43.191Z,0
2019-04-21T02:22:34.916Z,0
2019-04-21T02:23:26.155Z,0
2019-04-21T02:23:58.529Z,0
2019-04-21T02:24:41.849Z,0
2019-04-21T02:25:13.755Z,0
2019-04-21T02:25:57.185Z,0
2019-04-21T02:26:26.466Z,0
2019-04-21T02:27:12.597Z,0
2019-04-21T02:27:56.301Z,0
2019-04-21T02:28:42.215Z,0
2019-04-21T02:29:20.422Z,0
2019-04-21T02:29:59.610Z,0
2019-04-21T02:30:35.203Z,0
2019-04-21T02:31:26.333Z,0
2019-04-21T02:32:08.687Z,0
2019-04-21T02:32:47.677Z,0
2019-04-21T02:33:45.498Z,0
2019-04-21T02:38:16.212Z,0
2019-04-21T02:38:55.534Z,0
2019-04-21T02:39:24.736Z,0
2019-04-21T02:40:10.968Z,0
2019-04-21T02:42:07.613Z,0
2019-04-21T02:44:15.600Z,0
2019-04-21T02:44:59.626Z,0
2019-04-21T02:46:22.078Z,0
2019-04-21T02:46:46.168Z,0
2019-04-21T02:47:53.165Z,0
2019-04-21T02:48:16.883Z,0
2019-04-21T02:49:03.817Z,0
2019-04-21T02:49:44.702Z,0
2019-04-21T02:50:49.376Z,0
2019-04-21T02:52:35.238Z,0
2019-04-21T02:53:00.660Z,0
2019-04-21T02:54:47.316Z,0
2019-04-21T02:55:43.366Z,0
2019-04-21T02:56:24.453Z,0
2019-04-21T02:57:49.247Z,0
2019-04-21T02:58:24.468Z,0
2019-04-21T02:59:04.943Z,0
2019-04-21T03:00:29.665Z,0
2019-04-21T03:01:02.696Z,0
2019-04-21T03:01:48.256Z,0
2019-04-21T03:02:33.381Z,0
2019-04-21T03:03:03.343Z,0
2019-04-21T03:03:41.527Z,0
2019-04-21T03:04:27.825Z,0
2019-04-21T03:05:10.898Z,0
2019-04-21T03:06:28.711Z,0
2019-04-21T03:07:12.301Z,0
2019-04-21T03:09:08.515Z,0
2019-04-21T03:09:44.237Z,0
2019-04-21T03:10:34.557Z,0
2019-04-21T03:11:16.811Z,0
2019-04-21T03:11:55.800Z,0
2019-04-21T03:13:13.597Z,0
2019-04-21T03:13:56.523Z,0
2019-04-21T03:14:45.889Z,0
2019-04-21T03:15:58.935Z,0
2019-04-21T03:16:30.774Z,0
2019-04-21T03:17:13.638Z,0
2019-04-21T03:17:56.681Z,0
2019-04-21T03:18:39.350Z,0
2019-04-21T03:19:14.620Z,0
2019-04-21T03:21:15.256Z,0
2019-04-21T03:22:04.852Z,0
2019-04-21T03:22:29.690Z,0
2019-04-21T03:23:57.153Z,0
2019-04-21T03:24:53.312Z,0
2019-04-21T03:26:19.222Z,0
2019-04-21T03:26:47.854Z,0
2019-04-21T03:27:28.359Z,0
2019-04-21T03:28:35.187Z,0
2019-04-21T03:29:34.630Z,0
2019-04-21T03:31:05.509Z,0
2019-04-21T03:31:49.104Z,0
2019-04-21T03:35:32.401Z,0
2019-04-21T03:35:57.190Z,0
2019-04-21T03:36:32.576Z,0
2019-04-21T03:37:36.286Z,0
2019-04-21T03:38:40.229Z,0
2019-04-21T03:39:28.432Z,0
2019-04-21T03:40:06.574Z,0
2019-04-21T03:40:46.805Z,0
2019-04-21T03:41:28.593Z,0
2019-04-21T03:42:16.481Z,0
2019-04-21T03:42:47.219Z,0
2019-04-21T03:43:26.625Z,0
2019-04-21T03:46:22.827Z,0
2019-04-21T03:47:42.856Z,0
2019-04-21T03:49:47.087Z,0
2019-04-21T03:50:25.986Z,0
2019-04-21T03:51:02.504Z,0
2019-04-21T03:51:45.539Z,0
2019-04-21T03:53:09.047Z,0
2019-04-21T03:53:45.723Z,0
2019-04-21T03:54:24.945Z,0
2019-04-21T03:55:11.689Z,0
2019-04-21T03:55:52.739Z,0
2019-04-21T03:56:50.746Z,0
2019-04-21T03:58:34.401Z,0
2019-04-21T03:59:44.879Z,0
2019-04-21T04:01:57.356Z,0
2019-04-21T04:02:32.513Z,0
2019-04-21T04:04:03.227Z,0
2019-04-21T04:04:33.868Z,0
2019-04-21T04:05:19.474Z,0
2019-04-21T04:06:03.014Z,0
2019-04-21T04:06:32.275Z,0
2019-04-21T04:07:20.771Z,0
2019-04-21T04:07:57.121Z,0
2019-04-21T04:10:31.044Z,0
2019-04-21T04:11:19.310Z,0
2019-04-21T04:12:34.148Z,0
2019-04-21T04:13:13.371Z,0
2019-04-21T04:15:20.230Z,0
2019-04-21T04:16:05.568Z,0
2019-04-21T04:16:35.191Z,0
2019-04-21T04:17:16.301Z,0
2019-04-21T04:17:53.752Z,0
2019-04-21T04:19:14.401Z,0
2019-04-21T04:20:21.905Z,0
2019-04-21T04:21:02.399Z,0
2019-04-21T04:21:26.738Z,0
2019-04-21T04:22:03.554Z,0
2019-04-21T04:23:19.950Z,0
2019-04-21T04:24:03.755Z,0
2019-04-21T04:25:33.252Z,0
2019-04-21T04:26:06.589Z,0
2019-04-21T04:26:45.156Z,0
2019-04-21T04:27:51.014Z,0
2019-04-21T04:28:07.966Z,0
2019-04-21T05:08:33.333Z,45
2019-04-21T05:09:07.386Z,50
2019-04-21T05:09:46.336Z,50
2019-04-21T05:10:26.885Z,50
2019-04-21T05:11:18.142Z,55
2019-04-21T05:12:22.496Z,60
2019-04-21T05:13:05.837Z,60
2019-04-21T05:14:21.056Z,65
2019-04-21T05:15:07.235Z,65
2019-04-21T05:15:49.787Z,70
2019-04-21T05:17:13.819Z,75
2019-04-21T05:17:50.279Z,75
2019-04-21T05:18:34.357Z,80
2019-04-21T05:19:14.441Z,80
2019-04-21T05:20:01.487Z,80
2019-04-21T05:21:43.731Z,95
2019-04-21T05:23:05.676Z,100
2019-04-21T05:23:42.548Z,105
2019-04-21T05:24:22.867Z,110
2019-04-21T05:24:57.871Z,115
2019-04-21T05:25:41.403Z,115
2019-04-21T05:26:16.981Z,125
2019-04-21T05:27:02.574Z,130
2019-04-21T05:27:42.743Z,160
2019-04-21T05:28:18.364Z,205
2019-04-21T05:28:58.707Z,265
2019-04-21T05:29:53.348Z,305
2019-04-21T05:31:12.397Z,335
2019-04-21T05:31:49.264Z,335
2019-04-21T05:32:31.798Z,320
2019-04-21T05:33:08.971Z,300
2019-04-21T05:33:52.852Z,290
2019-04-21T05:34:30.350Z,295
2019-04-21T05:35:07.488Z,295
2019-04-21T05:35:48.765Z,300
2019-04-21T05:36:27.601Z,300
2019-04-21T05:37:13.975Z,295
2019-04-21T05:37:47.126Z,295
2019-04-21T05:38:31.267Z,295
2019-04-21T05:39:08.742Z,305
2019-04-21T05:39:47.871Z,305
2019-04-21T05:40:26.245Z,310
2019-04-21T05:41:06.182Z,310
2019-04-21T05:41:42.752Z,320
2019-04-21T05:42:28.266Z,330
2019-04-21T05:43:15.253Z,335
2019-04-21T05:43:56.036Z,345
2019-04-21T05:44:41.158Z,365
2019-04-21T05:45:26.661Z,375
2019-04-21T05:45:57.753Z,385
2019-04-21T05:46:38.511Z,395
2019-04-21T05:48:11.464Z,390
2019-04-21T05:48:39.003Z,390
2019-04-21T05:49:13.750Z,395
2019-04-21T05:49:55.147Z,400
2019-04-21T05:50:37.545Z,400
2019-04-21T05:51:12.850Z,405
2019-04-21T05:51:58.200Z,415
2019-04-21T05:52:32.762Z,425
2019-04-21T05:53:29.259Z,430
2019-04-21T05:54:06.436Z,435
2019-04-21T05:54:49.466Z,440
2019-04-21T05:55:24.269Z,445
2019-04-21T05:56:03.231Z,460
2019-04-21T05:56:40.452Z,470
2019-04-21T05:57:20.129Z,480
2019-04-21T05:58:17.783Z,485
2019-04-21T05:58:43.371Z,490
2019-04-21T05:59:25.871Z,495
2019-04-21T06:00:08.626Z,495
2019-04-21T06:01:32.697Z,515
2019-04-21T06:02:18.353Z,525
2019-04-21T06:02:49.351Z,535
2019-04-21T06:04:13.626Z,535
2019-04-21T06:05:05.213Z,535
2019-04-21T06:05:36.359Z,545
2019-04-21T06:06:19.963Z,550
2019-04-21T06:06:56.565Z,550
2019-04-21T06:08:12.743Z,565
2019-04-21T06:08:47.654Z,575
2019-04-21T06:09:34.718Z,580
2019-04-21T06:10:12.119Z,575
2019-04-21T06:10:52.134Z,580
2019-04-21T06:11:30.225Z,585
2019-04-21T06:12:12.746Z,600
2019-04-21T06:12:59.040Z,600
2019-04-21T06:13:42.574Z,585
2019-04-21T06:14:13.799Z,575
2019-04-21T06:15:00.771Z,575
2019-04-21T06:15:42.746Z,590
2019-04-21T06:16:13.649Z,610
2019-04-21T06:17:01.347Z,605
2019-04-21T06:18:18.758Z,635
2019-04-21T06:18:57.866Z,645
2019-04-21T06:19:43.001Z,645
2019-04-21T06:20:20.457Z,645
2019-04-21T06:20:59.246Z,640
2019-04-21T06:21:38.351Z,655
2019-04-21T06:22:18.696Z,685
2019-04-21T06:23:02.691Z,710
2019-04-21T06:23:40.026Z,710
2019-04-21T06:24:20.127Z,705
2019-04-21T06:25:30.753Z,690
2019-04-21T06:27:22.296Z,760
2019-04-21T06:27:43.866Z,775
2019-04-21T06:28:28.044Z,770
2019-04-21T06:29:02.603Z,765
2019-04-21T06:29:43.520Z,780
2019-04-21T06:30:25.090Z,800
2019-04-21T06:32:11.569Z,775
2019-04-21T06:32:38.029Z,745
2019-04-21T06:32:58.893Z,720
2019-04-21T06:34:33.334Z,770
2019-04-21T06:35:19.310Z,790
2019-04-21T06:36:11.167Z,800
2019-04-21T06:36:35.674Z,810
2019-04-21T06:37:21.267Z,815
2019-04-21T06:37:48.948Z,800
2019-04-21T06:38:42.968Z,780
2019-04-21T06:40:07.416Z,780
2019-04-21T06:40:35.452Z,810
2019-04-21T06:41:18.904Z,835
2019-04-21T06:41:45.083Z,835
2019-04-21T06:42:32.361Z,860
2019-04-21T06:43:25.701Z,875
2019-04-21T06:44:31.848Z,635
2019-04-21T06:45:18.389Z,440
2019-04-21T06:45:52.304Z,365
2019-04-21T06:46:34.755Z,360
2019-04-21T06:47:24.301Z,350
2019-04-21T06:47:57.260Z,355
2019-04-21T06:48:40.357Z,355
2019-04-21T06:49:12.997Z,360
2019-04-21T06:49:53.503Z,360
2019-04-21T06:50:45.589Z,360
2019-04-21T06:51:22.134Z,355
2019-04-21T06:52:02.024Z,355
2019-04-21T06:52:48.790Z,360
2019-04-21T06:53:20.307Z,355
2019-04-21T06:54:03.219Z,355
2019-04-21T06:54:39.854Z,350
2019-04-21T06:55:19.740Z,345
2019-04-21T06:56:04.462Z,345
2019-04-21T06:57:21.322Z,345
2019-04-21T06:57:57.647Z,350
2019-04-21T06:58:42.600Z,355
2019-04-21T06:59:20.629Z,355
2019-04-21T06:59:59.701Z,350
2019-04-21T07:00:40.375Z,350
2019-04-21T07:01:22.806Z,350
2019-04-21T07:02:21.030Z,350
2019-04-21T07:03:07.948Z,360
2019-04-21T07:03:26.596Z,365
2019-04-21T07:04:11.045Z,365
2019-04-21T07:04:49.929Z,355
2019-04-21T07:05:26.072Z,355
2019-04-21T07:06:07.681Z,350
2019-04-21T07:06:47.844Z,345
2019-04-21T07:07:27.281Z,345
2019-04-21T07:08:21.500Z,345
2019-04-21T07:09:30.965Z,345
2019-04-21T07:10:10.187Z,340
2019-04-21T07:10:51.581Z,340
2019-04-21T07:11:25.154Z,340
2019-04-21T07:12:05.618Z,345
2019-04-21T07:12:50.756Z,345
2019-04-21T07:13:30.696Z,340
2019-04-21T07:14:25.380Z,335
2019-04-21T07:14:52.502Z,330
2019-04-21T07:15:36.753Z,325
2019-04-21T07:16:18.557Z,325
2019-04-21T07:16:56.119Z,320
2019-04-21T07:17:32.075Z,320
2019-04-21T07:18:10.700Z,320
2019-04-21T07:19:40.677Z,310
2019-04-21T07:20:17.036Z,305
2019-04-21T07:20:52.935Z,300
2019-04-21T07:21:38.139Z,285
2019-04-21T07:22:17.439Z,280
2019-04-21T07:23:01.579Z,270
2019-04-21T07:23:36.683Z,260
2019-04-21T07:24:24.928Z,245
2019-04-21T07:25:02.203Z,235
2019-04-21T07:25:38.294Z,230
2019-04-21T07:26:19.080Z,225
2019-04-21T07:27:02.061Z,215
2019-04-21T07:28:24.970Z,210
2019-04-21T07:29:47.245Z,200
2019-04-21T07:30:29.252Z,195
2019-04-21T07:31:09.689Z,190
2019-04-21T07:32:26.271Z,180
2019-04-21T07:33:12.584Z,175
2019-04-21T07:34:33.130Z,165
2019-04-21T07:35:08.173Z,165
2019-04-21T07:35:42.970Z,165
2019-04-21T07:36:37.771Z,160
2019-04-21T07:37:05.438Z,160
2019-04-21T07:37:57.539Z,155
2019-04-21T07:38:26.722Z,155
2019-04-21T07:39:05.687Z,150
2019-04-21T07:39:49.196Z,150
2019-04-21T07:40:27.209Z,145
2019-04-21T07:41:01.896Z,145
2019-04-21T07:41:48.066Z,140
2019-04-21T07:42:27.954Z,140
2019-04-21T07:43:05.377Z,135
2019-04-21T07:43:47.656Z,135
2019-04-21T07:44:28.401Z,135
2019-04-21T07:45:06.938Z,130
2019-04-21T07:45:48.206Z,130
2019-04-21T07:46:28.611Z,130
2019-04-21T07:47:15.196Z,125
2019-04-21T07:47:54.761Z,125
2019-04-21T07:48:37.335Z,125
2019-04-21T07:49:18.956Z,125
2019-04-21T07:49:57.284Z,125
2019-04-21T07:50:37.993Z,125
2019-04-21T07:51:24.682Z,125
2019-04-21T07:52:17.938Z,120
2019-04-21T07:52:39.212Z,120
2019-04-21T07:53:20.977Z,120
2019-04-21T07:54:10.152Z,120
2019-04-21T07:54:44.096Z,120
2019-04-21T07:55:42.985Z,115
2019-04-21T07:56:27.327Z,115
2019-04-21T07:57:18.573Z,115
2019-04-21T07:57:59.512Z,115
2019-04-21T07:58:45.325Z,110
2019-04-21T07:59:26.815Z,110
2019-04-21T08:00:14.795Z,110
2019-04-21T08:00:49.152Z,110
2019-04-21T08:01:30.334Z,110
2019-04-21T08:02:08.306Z,110
2019-04-21T08:02:48.925Z,105
2019-04-21T08:03:26.323Z,105
2019-04-21T08:04:08.224Z,105
2019-04-21T08:05:07.285Z,105
2019-04-21T08:05:24.650Z,105
2019-04-21T08:06:26.513Z,105
2019-04-21T08:07:41.362Z,105
2019-04-21T08:08:01.256Z,100
2019-04-21T08:08:46.468Z,100
2019-04-21T08:09:31.694Z,100
2019-04-21T08:10:08.972Z,100
2019-04-21T08:10:50.474Z,100
2019-04-21T08:11:25.211Z,100
2019-04-21T08:12:07.857Z,100
2019-04-21T08:12:45.742Z,100
2019-04-21T08:14:16.519Z,100
2019-04-21T08:14:57.250Z,95
2019-04-21T08:15:33.575Z,95
2019-04-21T08:16:17.053Z,95
2019-04-21T08:16:57.056Z,95
2019-04-21T08:17:35.711Z,95
2019-04-21T08:18:20.155Z,95
2019-04-21T08:18:57.604Z,95
2019-04-21T08:19:35.035Z,95
2019-04-21T08:20:12.137Z,95
2019-04-21T08:20:59.531Z,95
2019-04-21T08:21:40.325Z,95
2019-04-21T08:22:24.129Z,95
2019-04-21T08:23:04.175Z,95
2019-04-21T08:24:19.564Z,95
2019-04-21T08:25:02.677Z,90
2019-04-21T08:25:45.541Z,90
2019-04-21T08:26:24.086Z,90
2019-04-21T08:27:04.780Z,90
2019-04-21T08:27:47.554Z,90
2019-04-21T08:28:25.763Z,90
2019-04-21T08:29:12.399Z,90
2019-04-21T08:29:45.833Z,90
2019-04-21T08:30:25.518Z,90
2019-04-21T08:31:01.088Z,90
2019-04-21T08:32:35.787Z,90
2019-04-21T08:34:27.253Z,90
2019-04-21T08:35:39.792Z,90
2019-04-21T08:36:39.808Z,90
2019-04-21T08:37:11.543Z,85
2019-04-21T08:37:47.960Z,85
2019-04-21T08:38:27.471Z,85
2019-04-21T08:39:12.586Z,85
2019-04-21T08:40:01.860Z,85
2019-04-21T08:40:40.573Z,85
2019-04-21T08:41:12.102Z,85
2019-04-21T08:41:49.479Z,85
2019-04-21T08:42:29.819Z,85
2019-04-21T08:43:06.475Z,85
2019-04-21T08:43:50.991Z,85
2019-04-21T08:45:14.593Z,85
2019-04-21T08:45:52.267Z,85
2019-04-21T08:46:38.565Z,85
2019-04-21T08:47:18.197Z,85
2019-04-21T08:47:58.037Z,85
2019-04-21T08:48:34.799Z,85
2019-04-21T08:49:13.158Z,85
2019-04-21T08:49:53.446Z,85
2019-04-21T08:50:36.134Z,85
2019-04-21T08:51:26.928Z,85
2019-04-21T08:52:09.619Z,85
2019-04-21T08:52:56.090Z,85
2019-04-21T08:53:24.438Z,85
2019-04-21T08:54:01.020Z,85
2019-04-21T08:54:40.464Z,85
2019-04-21T08:55:24.767Z,80
2019-04-21T08:56:09.834Z,80
2019-04-21T08:56:46.478Z,80
2019-04-21T08:57:29.976Z,80
2019-04-21T08:58:49.487Z,80
2019-04-21T09:00:12.109Z,80
2019-04-21T09:00:46.613Z,80
2019-04-21T09:01:30.146Z,80
2019-04-21T09:02:06.102Z,80
2019-04-21T09:02:46.241Z,80
2019-04-21T09:03:28.081Z,80
2019-04-21T09:04:12.618Z,80
2019-04-21T09:04:45.669Z,80
2019-04-21T09:05:29.171Z,80
2019-04-21T09:06:13.542Z,80
2019-04-21T09:07:38.630Z,80
2019-04-21T09:08:10.105Z,80
2019-04-21T09:08:51.811Z,80
2019-04-21T09:09:33.762Z,80
2019-04-21T09:10:08.891Z,80
2019-04-21T09:10:52.688Z,80
2019-04-21T09:11:34.447Z,80
2019-04-21T09:12:14.542Z,80
2019-04-21T09:12:51.562Z,80
2019-04-21T09:13:36.630Z,80
2019-04-21T09:14:17.661Z,80
2019-04-21T09:14:54.046Z,80
2019-04-21T09:15:34.752Z,80
2019-04-21T09:16:13.577Z,80
2019-04-21T09:16:51.187Z,80
2019-04-21T09:17:32.653Z,75
2019-04-21T09:18:13.228Z,75
2019-04-21T09:18:53.542Z,75
2019-04-21T09:20:38.434Z,75
2019-04-21T09:21:04.319Z,75
2019-04-21T09:21:43.422Z,75
2019-04-21T09:22:23.889Z,75
2019-04-21T09:23:00.262Z,75
2019-04-21T09:23:44.462Z,75
2019-04-21T09:24:32.802Z,75
2019-04-21T09:25:01.128Z,75
2019-04-21T09:25:45.992Z,75
2019-04-21T09:26:25.112Z,75
2019-04-21T09:27:03.353Z,75
2019-04-21T09:27:46.565Z,75
2019-04-21T09:28:25.330Z,75
2019-04-21T09:28:59.157Z,75
2019-04-21T09:29:39.086Z,75
2019-04-21T09:30:12.836Z,75
2019-04-21T09:30:55.854Z,75
2019-04-21T09:31:37.912Z,75
2019-04-21T09:32:18.159Z,75
2019-04-21T09:32:56.070Z,75
2019-04-21T09:33:38.968Z,75
2019-04-21T09:34:22.287Z,75
2019-04-21T09:34:55.713Z,75
2019-04-21T09:35:35.856Z,75
2019-04-21T09:36:19.876Z,75
2019-04-21T09:37:12.361Z,75
2019-04-21T09:37:44.251Z,75
2019-04-21T09:38:27.416Z,75
2019-04-21T09:39:05.396Z,75
2019-04-21T09:39:40.854Z,75
2019-04-21T09:40:26.020Z,75
2019-04-21T09:40:59.693Z,75
2019-04-21T09:41:40.744Z,70
2019-04-21T09:42:21.232Z,70
2019-04-21T09:43:04.568Z,70
2019-04-21T09:43:46.534Z,70
2019-04-21T09:44:27.232Z,70
2019-04-21T09:45:04.121Z,70
2019-04-21T09:45:42.786Z,70
2019-04-21T09:46:23.102Z,70
2019-04-21T09:47:03.796Z,70
2019-04-21T09:47:50.802Z,70
2019-04-21T09:48:24.694Z,70
2019-04-21T09:49:06.188Z,70
2019-04-21T09:49:45.142Z,70
2019-04-21T09:50:24.342Z,70
2019-04-21T09:51:04.741Z,70
2019-04-21T09:51:45.906Z,70
2019-04-21T09:52:31.064Z,70
2019-04-21T09:53:16.599Z,70
2019-04-21T09:53:53.306Z,70
2019-04-21T09:54:31.215Z,70
2019-04-21T09:55:13.834Z,70
2019-04-21T09:55:54.110Z,70
2019-04-21T09:56:33.421Z,70
2019-04-21T09:57:11.779Z,70
2019-04-21T09:57:53.943Z,70
2019-04-21T09:58:36.214Z,70
2019-04-21T09:59:17.873Z,70
2019-04-21T10:00:00.802Z,70
2019-04-21T10:00:42.112Z,70
2019-04-21T10:01:17.986Z,70
2019-04-21T10:01:58.559Z,70
2019-04-21T10:02:37.249Z,70
2019-04-21T10:03:15.496Z,70
2019-04-21T10:03:57.054Z,70
2019-04-21T10:04:33.599Z,70
2019-04-21T10:05:14.524Z,70
2019-04-21T10:05:54.125Z,70
2019-04-21T10:06:34.981Z,70
2019-04-21T10:07:24.143Z,70
2019-04-21T10:07:55.331Z,70
2019-04-21T10:08:36.355Z,75
2019-04-21T10:09:18.318Z,70
2019-04-21T10:09:56.502Z,70
2019-04-21T10:10:36.943Z,65
2019-04-21T10:11:19.402Z,65
2019-04-21T10:11:57.661Z,65
2019-04-21T10:12:38.081Z,65
2019-04-21T10:13:18.476Z,65
2019-04-21T10:13:58.943Z,65
2019-04-21T10:14:39.313Z,65
2019-04-21T10:15:23.148Z,65
2019-04-21T10:16:00.786Z,65
2019-04-21T10:16:40.761Z,65
2019-04-21T10:17:21.680Z,65
2019-04-21T10:18:02.592Z,65
2019-04-21T10:18:41.774Z,65
2019-04-21T10:19:23.295Z,65
2019-04-21T10:20:03.145Z,65
2019-04-21T10:20:42.991Z,65
2019-04-21T10:21:27.569Z,65
2019-04-21T10:22:05.981Z,65
2019-04-21T10:22:46.817Z,65
2019-04-21T10:23:27.415Z,65
2019-04-21T10:24:06.789Z,65
2019-04-21T10:24:48.817Z,65
2019-04-21T10:25:28.344Z,65
2019-04-21T10:26:08.563Z,65
2019-04-21T10:26:49.432Z,65
2019-04-21T10:27:29.821Z,65
2019-04-21T10:28:10.912Z,65
2019-04-21T10:28:51.013Z,65
2019-04-21T11:07:55.041Z,60
2019-04-21T11:08:30.621Z,60
2019-04-21T11:09:06.909Z,60
2019-04-21T11:09:46.337Z,60
2019-04-21T11:10:27.780Z,60
2019-04-21T11:11:09.916Z,60
2019-04-21T11:11:51.350Z,60
2019-04-21T11:12:29.240Z,60
2019-04-21T11:13:10.395Z,60
2019-04-21T11:13:50.608Z,55
2019-04-21T11:14:31.485Z,55
2019-04-21T11:15:11.514Z,55
2019-04-21T11:15:51.372Z,55
2019-04-21T11:16:33.060Z,55
2019-04-21T11:17:12.316Z,55
2019-04-21T11:17:52.638Z,55
2019-04-21T11:18:33.956Z,55
2019-04-21T11:19:13.730Z,60
2019-04-21T11:19:54.831Z,60
2019-04-21T11:20:35.221Z,60
2019-04-21T11:21:16.634Z,60
2019-04-21T11:21:56.830Z,55
2019-04-21T11:22:37.197Z,55
2019-04-21T11:23:19.462Z,55
2019-04-21T11:23:58.418Z,55
2019-04-21T11:24:38.949Z,55
2019-04-21T11:25:18.088Z,55
2019-04-21T11:25:59.881Z,55
2019-04-21T11:26:39.983Z,55
2019-04-21T11:27:19.996Z,55
2019-04-21T11:28:00.814Z,55
2019-04-21T11:28:40.900Z,55
2019-04-21T11:29:21.335Z,55
2019-04-21T11:30:02.323Z,55
2019-04-21T11:30:42.419Z,55
2019-04-21T11:31:22.895Z,55
2019-04-21T11:32:03.057Z,55
2019-04-21T11:32:44.903Z,55
2019-04-21T11:33:24.873Z,55
2019-04-21T11:34:05.114Z,55
2019-04-21T11:34:45.293Z,55
2019-04-21T11:35:25.456Z,55
2019-04-21T11:36:05.303Z,55
2019-04-21T11:36:46.016Z,55
2019-04-21T11:37:26.235Z,55
2019-04-21T11:38:14.857Z,55
2019-04-21T11:39:01.972Z,55
2019-04-21T11:39:36.168Z,55
2019-04-21T11:40:11.243Z,55
2019-04-21T11:40:49.763Z,55
2019-04-21T11:41:29.801Z,55
2019-04-21T11:42:10.094Z,55
2019-04-21T11:42:51.431Z,55
2019-04-21T11:43:30.823Z,55
2019-04-21T11:44:12.069Z,55
2019-04-21T11:44:51.517Z,55
2019-04-21T11:45:34.651Z,55
2019-04-21T11:46:13.982Z,55
2019-04-21T11:46:54.549Z,55
2019-04-21T11:47:34.793Z,55
2019-04-21T11:48:16.594Z,55
2019-04-21T11:48:56.170Z,55
2019-04-21T11:49:36.945Z,55
2019-04-21T11:50:17.075Z,55
2019-04-21T11:50:57.497Z,55
2019-04-21T11:51:37.724Z,55
2019-04-21T11:52:18.788Z,55
2019-04-21T11:52:59.000Z,55
2019-04-21T11:53:41.088Z,55
2019-04-21T11:54:22.464Z,55
2019-04-21T11:55:02.757Z,55
2019-04-21T11:55:45.296Z,55
2019-04-21T11:56:23.047Z,55
2019-04-21T11:57:11.602Z,55
2019-04-21T11:57:46.819Z,55
2019-04-21T11:58:24.028Z,55
2019-04-21T11:59:05.745Z,55
2019-04-21T11:59:45.843Z,55
2019-04-21T12:00:25.237Z,55
2019-04-21T12:01:05.749Z,55
2019-04-21T12:01:46.139Z,55
2019-04-21T12:02:27.403Z,55
2019-04-21T12:03:06.910Z,55
2019-04-21T12:03:47.594Z,55